Share

Toyah, TX

Pecos Municipal (KPEQ) Elev 2612 ft | 31.38 °N, 103.51 °W | Change Station

Current weather conditions updated 19 minutes ago

Clear
Clear
62 °F
Feels Like 62 °F
N
10
Wind Variable Wind from East
Sunrise 7:22 AM
Sunset 8:26 PM
Moon Waning Gibbous

Today is forecast to be Cooler than yesterday. Afternoon showers and thunderstorms.

Pressure 30.00 in
Visibility 10.0 miles
Clouds Clear
Dew Point 50 °F
Humidity 65%
Rainfall 0.00 in
Snow Depth Not available.
UV 0 out of 16
Pollen 7.90 out of 12
Air Quality Not available.
Flu Activity Local Activity
METAR KPEQ 190955Z AUTO 08009KT 10SM CLR 17/10 A3000 RMK AO2 T01650098

More Conditions Fewer Conditions

Pressure 30.00 in
Visibility 10.0 miles
Clouds Clear
Dew Point 50 °F
Humidity 65%
Rainfall 0.00 in
Snow Depth Not available.
UV 0 out of 16
Pollen 7.90 out of 12
Air Quality Not available.
Flu Activity Local Activity
METAR KPEQ 190955Z AUTO 08009KT 10SM CLR 17/10 A3000 RMK AO2 T01650098

More Conditions Fewer Conditions

10-Day Weather Forecast

Almanac

Astronomy

Apr. 19, 2014 Rise Set
Actual Time 7:22 AM CDT 8:26 PM CDT
Civil Twilight 6:57 AM CDT 8:51 PM CDT
Nautical Twilight 6:27 AM CDT 9:21 PM CDT
Astronomical Twilight 5:57 AM CDT 9:52 PM CDT
Moon 12:04 AM CDT 10:51 AM CDT
Length of Visible Light 13h 54m
Length of Day
13h 03m
Tomorrow will be 1m 46s longer.
Waning Gibbous, 81% of the Moon is Illuminated
Today
Waning Gibbous
Apr 22
Last Quarter
Apr 29
New
May 6
First Quarter
May 14
Full

Today's Extremes

State Highs State Lows

Community

  • Bleeding Hearts
    Bleeding Hearts
  • Sunset Silhouettes
    Sunset Silhouettes
  • FL sunset Perico Isle
    FL sunset Perico Isle
  • Cloudy spring view
    Cloudy spring view
  • Old barn
    Old barn

WunderPhotos

Upload Photos

1,702,676 photos uploaded!

WunderBlogs® & News

Nearby

Snow Depth

Station Depth Elevation
No new snow has been reported.

Coastal Water Temperatures

Place Temperature
No Stations Reporting

Earthquake Activity

City Distance Mag. Time & Date
No recent earthquake activity has been reported nearby.
Minimum magnitude displayed is 2.5.

Nearby Weather Stations

Station Location Temp. Dew Point Humidity Wind Precip. Elev Updated Type
MesoWest TOYAH , Pecos, TX 64 °F - - ESE  at  4 mph 0.00 in / hr 2823 ft 2:05 AM CDT MADIS
MesoWest PECOS , Barstow, TX 63 °F - - North  at  - 0.00 in / hr 2573 ft 2:40 AM CDT MADIS

Show More Stations Show Fewer Stations

What do you think?

We're not finished. Please let us know what you like, what you don't like, and what you are still missing.